Time;durP1;ratioP1;P1;durP2;ratioP2;P2;SDS_P1;SDS_P2;PMS_P1;PMS_P2;Temp;Humidity;BMP_temperature;BMP_pressure;BME280_temperature;BME280_humidity;BME280_pressure;Samples;Min_cycle;Max_cycle;Signal;HPM_P1;HPM_P2
2022/12/24 00:03:50;;;;;;;239.15;128.02;;;;;;;-0.07;95.85;97548.09;10284304;28;20036;-56
2022/12/24 00:08:52;;;;;;;236.55;132.68;;;;;;;-0.08;96.03;97541.28;10274265;28;20057;-56
2022/12/24 00:13:51;;;;;;;276.13;151.27;;;;;;;-0.11;96.06;97538.63;10282379;28;20077;-56
2022/12/24 00:18:50;;;;;;;304.05;173.80;;;;;;;-0.16;96.15;97541.00;10278143;28;20034;-56
2022/12/24 00:23:49;;;;;;;433.15;254.52;;;;;;;-0.16;96.21;97527.34;10287416;28;20030;-56
2022/12/24 00:28:48;;;;;;;463.98;280.88;;;;;;;-0.20;96.01;97533.19;10275406;28;20025;-56
2022/12/24 00:33:48;;;;;;;445.25;265.45;;;;;;;-0.24;96.30;97532.19;10289599;28;20076;-56
2022/12/24 00:38:47;;;;;;;388.50;226.82;;;;;;;-0.24;95.70;97527.09;10268839;28;20077;-56
2022/12/24 00:43:46;;;;;;;324.27;192.55;;;;;;;-0.28;96.39;97514.16;10285995;28;20463;-56
2022/12/24 00:48:45;;;;;;;355.77;205.73;;;;;;;-0.25;95.61;97521.91;10267371;28;20469;-56
2022/12/24 00:53:45;;;;;;;451.33;262.17;;;;;;;-0.31;96.28;97531.91;10278948;28;20395;-56
2022/12/24 00:58:44;;;;;;;441.77;252.85;;;;;;;-0.39;96.53;97522.28;10268381;28;20173;-56
2022/12/24 01:03:43;;;;;;;443.40;262.17;;;;;;;-0.29;96.28;97530.28;10253828;28;20068;-56
2022/12/24 01:08:42;;;;;;;419.85;240.15;;;;;;;-0.31;96.01;97537.88;10252623;28;20057;-56
2022/12/24 01:13:41;;;;;;;409.40;246.75;;;;;;;-0.33;96.06;97526.72;10274343;28;20121;-56
2022/12/24 01:18:40;;;;;;;390.88;221.75;;;;;;;-0.38;96.25;97529.09;10292896;28;20066;-56
2022/12/24 01:23:39;;;;;;;332.75;195.40;;;;;;;-0.43;96.42;97535.72;10290501;28;20034;-56
2022/12/24 01:28:38;;;;;;;405.98;237.52;;;;;;;-0.42;96.12;97536.56;10291784;28;20037;-56
2022/12/24 01:33:37;;;;;;;428.58;244.63;;;;;;;-0.47;96.35;97531.31;10290218;28;20073;-56
2022/12/24 01:38:37;;;;;;;425.83;240.40;;;;;;;-0.55;96.75;97514.00;10292195;28;20025;-56
2022/12/24 01:43:35;;;;;;;;;;;;;;;-0.52;96.47;97511.56;10291304;28;20065;-57
2022/12/24 01:48:41;;;;;;;312.02;166.90;;;;;;;-0.55;96.85;97514.88;10291684;28;20004;-56
2022/12/24 01:53:44;;;;;;;282.95;152.50;;;;;;;-0.59;96.60;97510.44;10290274;28;20061;-56
2022/12/24 01:58:47;;;;;;;260.77;135.50;;;;;;;-0.55;97.18;97527.59;10288815;28;20068;-56
2022/12/24 02:03:46;;;;;;;332.25;187.57;;;;;;;-0.68;97.02;97510.94;10286560;28;20507;-56
2022/12/24 02:08:45;;;;;;;;;;;;;;;-0.64;97.48;97500.06;10291103;28;20089;-56
2022/12/24 02:13:49;;;;;;;291.83;157.70;;;;;;;-0.62;96.82;97493.38;10290057;28;19921;-56
2022/12/24 02:19:14;;;;;;;256.70;138.60;;;;;;;-0.69;96.68;97482.88;10287913;28;20072;-56
2022/12/24 02:24:31;;;;;;;241.38;128.60;;;;;;;-0.65;96.92;97484.72;10281656;28;20069;-56
2022/12/24 02:30:02;;;;;;;469.65;245.90;;;;;;;-0.66;97.54;97498.28;10289687;28;20172;-56
2022/12/24 02:35:04;;;;;;;313.67;172.38;;;;;;;-0.64;97.23;97500.06;10290129;28;20448;-56
2022/12/24 02:40:21;;;;;;;284.25;152.00;;;;;;;-0.73;97.30;97496.31;10285465;28;20483;-56
2022/12/24 02:45:25;;;;;;;256.70;144.52;;;;;;;-0.81;97.08;97488.38;10254128;28;20061;-56
2022/12/24 02:50:24;;;;;;;145.88;74.97;;;;;;;-0.87;97.20;97491.53;10288951;28;20081;-56
2022/12/24 02:55:52;;;;;;;140.50;71.03;;;;;;;-0.97;96.69;97492.00;10289610;28;20065;-56
2022/12/24 03:01:16;;;;;;;148.48;78.90;;;;;;;-1.07;97.48;97479.69;10286736;28;20069;-56
2022/12/24 03:06:21;;;;;;;131.57;68.30;;;;;;;-1.11;96.58;97477.84;10286657;28;20605;-56
2022/12/24 03:11:20;;;;;;;139.82;73.65;;;;;;;-1.14;96.85;97480.25;10248740;28;20096;-56
2022/12/24 03:16:25;;;;;;;159.38;83.82;;;;;;;-1.24;97.52;97486.66;10250595;28;20073;-57
2022/12/24 03:21:29;;;;;;;189.13;90.20;;;;;;;-1.29;97.63;97483.91;10286884;28;20065;-56
2022/12/24 03:26:31;;;;;;;184.57;89.78;;;;;;;-1.27;97.69;97482.31;10286256;28;20050;-56
2022/12/24 03:31:44;;;;;;;207.63;98.70;;;;;;;-1.33;98.02;97494.81;10287076;28;20069;-56
2022/12/24 03:36:46;;;;;;;181.73;89.55;;;;;;;-1.35;97.99;97483.69;10287207;28;20467;-56
2022/12/24 03:41:45;;;;;;;178.38;88.40;;;;;;;-1.27;97.93;97477.22;10286580;28;20058;-56
2022/12/24 03:46:44;;;;;;;;;;;;;;;-1.27;97.90;97472.13;10280875;28;20050;-56
2022/12/24 03:51:42;;;;;;;180.05;94.50;;;;;;;-1.32;98.81;97476.16;10254792;28;19953;-56
2022/12/24 03:56:41;;;;;;;193.13;100.38;;;;;;;-1.32;98.72;97482.94;10259092;28;20109;-56
2022/12/24 04:01:40;;;;;;;180.30;99.70;;;;;;;-1.31;98.37;97490.63;10294598;28;20034;-57
2022/12/24 04:06:39;;;;;;;170.10;83.97;;;;;;;-1.31;98.42;97495.72;10286135;28;20018;-56
2022/12/24 04:11:38;;;;;;;157.85;77.55;;;;;;;-1.33;98.78;97502.44;10255413;28;20049;-56
2022/12/24 04:16:37;;;;;;;155.65;78.97;;;;;;;-1.50;98.15;97529.72;10261301;28;20026;-56
2022/12/24 04:21:36;;;;;;;177.38;83.03;;;;;;;-1.58;98.01;97520.03;10294559;28;20030;-56
2022/12/24 04:26:35;;;;;;;197.40;88.22;;;;;;;-1.66;98.04;97522.22;10292733;28;20026;-56
2022/12/24 04:31:34;;;;;;;222.48;96.70;;;;;;;-1.73;98.25;97510.91;10294310;28;20026;-56
2022/12/24 04:36:33;;;;;;;196.40;89.78;;;;;;;-1.73;98.50;97518.53;10270184;28;20776;-57
2022/12/24 04:41:32;;;;;;;201.10;92.90;;;;;;;-1.58;98.43;97520.03;10294354;28;20128;-56
2022/12/24 04:46:31;;;;;;;214.52;90.68;;;;;;;-1.56;98.84;97526.91;10291541;28;20033;-56
2022/12/24 04:51:30;;;;;;;219.27;103.25;;;;;;;-1.60;98.78;97526.72;10294726;28;20073;-56
2022/12/24 04:56:31;;;;;;;200.48;98.25;;;;;;;-1.60;98.92;97534.34;10293097;28;20786;-56
2022/12/24 05:01:31;;;;;;;206.80;105.80;;;;;;;-1.60;99.34;97532.69;10292516;28;20622;-56
2022/12/24 05:06:33;;;;;;;190.27;98.43;;;;;;;-1.54;98.41;97538.03;10284201;28;20077;-57
2022/12/24 05:11:32;;;;;;;212.98;107.75;;;;;;;-1.50;98.98;97527.16;10292202;28;20511;-56
2022/12/24 05:16:31;;;;;;;232.77;114.63;;;;;;;-1.47;98.42;97528.97;10290186;28;20040;-57
2022/12/24 05:21:30;;;;;;;206.95;107.40;;;;;;;-1.43;98.28;97510.47;10291450;28;20073;-57
2022/12/24 05:26:42;;;;;;;200.48;103.90;;;;;;;-1.42;98.08;97509.69;10289537;28;20064;-57
2022/12/24 05:31:42;;;;;;;210.98;109.25;;;;;;;-1.39;97.62;97506.41;10270575;28;20077;-57
2022/12/24 05:36:42;;;;;;;233.25;126.75;;;;;;;-1.39;97.61;97501.31;10258752;28;20069;-57
2022/12/24 05:41:41;;;;;;;228.98;126.57;;;;;;;-1.44;97.82;97493.47;10289144;28;20084;-57
2022/12/24 05:46:40;;;;;;;;;;;;;;;-1.52;97.81;97489.72;10289664;28;20065;-57
2022/12/24 05:51:40;;;;;;;195.50;96.97;;;;;;;-1.55;97.47;97510.84;10263855;28;19918;-57
2022/12/24 05:56:38;;;;;;;164.93;86.32;;;;;;;-1.62;98.00;97515.59;10256155;28;20066;-57
2022/12/24 06:01:37;;;;;;;159.73;83.72;;;;;;;-1.55;97.71;97530.31;10248630;28;20116;-57
2022/12/24 06:06:36;;;;;;;167.27;83.63;;;;;;;-1.62;98.46;97528.31;10271968;28;20058;-57
2022/12/24 06:11:35;;;;;;;156.25;79.20;;;;;;;-1.98;97.73;97533.56;10280767;28;20699;-57
2022/12/24 06:16:34;;;;;;;125.35;64.82;;;;;;;-1.85;97.52;97530.75;10281536;28;20466;-57
2022/12/24 06:21:33;;;;;;;107.22;57.30;;;;;;;-1.69;97.25;97522.09;10282062;28;20041;-57
2022/12/24 06:26:34;;;;;;;121.15;65.63;;;;;;;-1.56;97.11;97513.31;10287904;28;20133;-57
2022/12/24 06:31:33;;;;;;;138.68;72.55;;;;;;;-1.40;96.98;97527.53;10287462;28;20062;-57
2022/12/24 06:36:32;;;;;;;130.93;70.20;;;;;;;-1.28;97.04;97541.69;10276826;28;20046;-57
2022/12/24 06:41:31;;;;;;;146.02;75.43;;;;;;;-1.31;97.17;97535.56;10272787;28;20069;-57
2022/12/24 06:46:30;;;;;;;168.68;95.15;;;;;;;-1.39;97.35;97503.84;10267565;28;20065;-57
2022/12/24 06:51:29;;;;;;;143.70;80.28;;;;;;;-0.93;97.52;97562.63;10271802;28;20034;-57
2022/12/24 06:56:27;;;;;;;153.45;82.80;;;;;;;-0.80;97.39;97572.50;10279784;28;20104;-57
2022/12/24 07:01:26;;;;;;;180.75;97.97;;;;;;;-0.89;97.52;97551.72;10277419;28;20026;-57
2022/12/24 07:06:28;;;;;;;226.77;124.00;;;;;;;-0.71;97.03;97566.91;10278051;28;20026;-58
2022/12/24 07:11:27;;;;;;;251.02;135.88;;;;;;;-0.53;96.81;97566.78;10276955;28;20073;-57
2022/12/24 07:16:26;;;;;;;259.80;144.65;;;;;;;-0.41;96.93;97562.13;10273000;28;20042;-57
2022/12/24 07:21:25;;;;;;;301.60;175.20;;;;;;;-0.19;97.24;97562.94;10287171;28;20085;-58
2022/12/24 07:26:24;;;;;;;284.55;167.52;;;;;;;0.10;96.73;97555.50;10285723;28;20022;-57
2022/12/24 07:31:22;;;;;;;296.48;173.52;;;;;;;0.34;97.19;97553.88;10259610;28;20503;-57
2022/12/24 07:36:21;;;;;;;286.95;176.80;;;;;;;0.53;97.15;97555.38;10259357;28;20037;-57
2022/12/24 07:41:20;;;;;;;246.07;150.70;;;;;;;0.81;96.47;97549.53;10258856;28;20038;-57
2022/12/24 07:46:19;;;;;;;247.88;148.63;;;;;;;0.99;96.35;97558.63;10255802;28;20892;-58
2022/12/24 07:51:18;;;;;;;233.00;148.02;;;;;;;1.21;96.02;97563.63;10278291;28;20057;-58
2022/12/24 07:56:17;;;;;;;266.45;166.05;;;;;;;1.46;95.81;97557.63;10268681;28;20399;-58
2022/12/24 08:01:17;;;;;;;302.25;189.90;;;;;;;1.79;95.72;97567.16;10278871;28;20030;-57
2022/12/24 08:06:16;;;;;;;211.60;132.77;;;;;;;2.00;95.65;97556.69;10261062;28;20064;-57
2022/12/24 08:11:15;;;;;;;209.82;133.05;;;;;;;2.21;95.35;97548.75;10284342;28;20044;-61
2022/12/24 08:16:14;;;;;;;188.80;125.38;;;;;;;2.41;93.97;97543.31;10280095;28;20069;-57
2022/12/24 08:21:13;;;;;;;195.07;123.65;;;;;;;2.65;93.32;97555.91;10276107;28;20045;-57
2022/12/24 08:26:12;;;;;;;210.30;134.60;;;;;;;2.90;92.93;97576.25;10277506;28;20419;-57
2022/12/24 08:31:11;;;;;;;152.35;99.30;;;;;;;2.87;91.46;97568.47;10260186;28;20074;-57
2022/12/24 08:36:10;;;;;;;142.57;97.88;;;;;;;2.88;91.53;97577.03;10265677;28;20045;-57
2022/12/24 08:41:09;;;;;;;132.75;90.03;;;;;;;3.16;91.69;97570.91;10279630;28;20133;-57
2022/12/24 08:46:08;;;;;;;140.88;90.13;;;;;;;3.46;91.54;97552.84;10280729;28;20112;-57
2022/12/24 08:51:10;;;;;;;117.53;77.50;;;;;;;3.67;91.68;97547.34;10272088;28;20081;-57
2022/12/24 08:56:10;;;;;;;122.13;82.18;;;;;;;4.06;91.49;97541.38;10258892;28;20568;-57
2022/12/24 09:01:12;;;;;;;187.32;115.93;;;;;;;4.21;89.91;97543.38;10280302;28;20084;-57
2022/12/24 09:06:13;;;;;;;173.15;119.63;;;;;;;4.15;89.33;97554.41;10273542;28;20156;-57
2022/12/24 09:11:14;;;;;;;164.55;111.75;;;;;;;4.44;89.15;97546.41;10277151;28;20107;-57
2022/12/24 09:16:13;;;;;;;154.88;107.18;;;;;;;4.55;88.81;97538.91;10273140;28;20076;-57
2022/12/24 09:21:15;;;;;;;217.48;145.25;;;;;;;4.76;88.50;97525.56;10272602;28;20073;-56
2022/12/24 09:26:20;;;;;;;202.32;139.35;;;;;;;5.06;88.48;97520.16;10273012;28;20117;-57
2022/12/24 09:31:20;;;;;;;176.93;122.60;;;;;;;5.47;87.74;97510.53;10265324;28;20524;-57
2022/12/24 09:36:20;;;;;;;227.63;157.43;;;;;;;5.78;85.31;97510.09;10275612;28;20547;-57
2022/12/24 09:41:21;;;;;;;226.38;159.45;;;;;;;6.05;84.49;97514.78;10255279;28;20078;-57
2022/12/24 09:46:26;;;;;;;280.95;193.65;;;;;;;6.01;83.11;97519.00;10266218;28;20521;-57
2022/12/24 09:51:35;;;;;;;234.90;162.52;;;;;;;5.82;82.02;97530.78;10285042;28;20068;-57
2022/12/24 09:56:40;;;;;;;204.00;148.20;;;;;;;5.96;82.65;97543.84;10286505;28;20077;-57
2022/12/24 10:01:39;;;;;;;186.82;138.38;;;;;;;6.25;82.99;97551.09;10277572;28;20069;-57
2022/12/24 10:06:56;;;;;;;191.82;140.35;;;;;;;6.69;83.52;97537.88;10279927;28;20095;-57
2022/12/24 10:12:23;;;;;;;197.63;137.93;;;;;;;7.08;81.89;97521.91;10285615;28;20081;-57
2022/12/24 10:17:37;;;;;;;175.50;127.18;;;;;;;7.28;78.24;97508.31;10273462;28;20066;-58
2022/12/24 10:22:41;;;;;;;183.07;138.65;;;;;;;7.47;78.70;97506.75;10287370;28;20065;-57
2022/12/24 10:27:40;;;;;;;225.60;166.13;;;;;;;7.49;78.32;97518.81;10284713;28;20057;-57
2022/12/24 10:32:40;;;;;;;215.23;159.50;;;;;;;7.56;77.64;97514.56;10285456;28;20124;-57
2022/12/24 10:37:41;;;;;;;196.85;146.07;;;;;;;7.68;77.72;97491.41;10271304;28;20489;-57
2022/12/24 10:42:41;;;;;;;178.75;136.95;;;;;;;7.81;77.06;97480.31;10277588;28;20057;-57
2022/12/24 10:47:44;;;;;;;161.43;117.70;;;;;;;8.02;75.92;97484.72;10273456;28;20068;-57
2022/12/24 10:52:44;;;;;;;206.63;149.25;;;;;;;7.98;74.91;97477.81;10284063;28;20077;-57
2022/12/24 10:58:00;;;;;;;200.30;143.40;;;;;;;7.97;75.09;97491.59;10268604;28;20125;-57
2022/12/24 11:03:10;;;;;;;151.82;115.55;;;;;;;8.05;75.85;97481.28;10274764;28;20084;-57
2022/12/24 11:08:14;;;;;;;144.40;112.35;;;;;;;8.15;76.18;97484.75;10283665;28;20062;-57
2022/12/24 11:13:28;;;;;;;99.65;78.45;;;;;;;8.15;74.73;97482.19;10278972;28;20085;-57
2022/12/24 11:18:27;;;;;;;102.47;79.85;;;;;;;8.24;74.48;97484.81;10271408;28;20080;-57
2022/12/24 11:23:28;;;;;;;125.50;86.35;;;;;;;8.57;75.34;97488.34;10282471;28;20519;-56
2022/12/24 11:28:32;;;;;;;126.90;103.78;;;;;;;8.81;74.35;97493.59;10273553;28;20065;-55
2022/12/24 11:33:44;;;;;;;128.23;100.78;;;;;;;9.06;73.73;97493.63;10278580;28;20583;-56
2022/12/24 11:38:53;;;;;;;71.35;52.72;;;;;;;8.84;70.22;97497.91;10280731;28;20129;-56
2022/12/24 11:44:02;;;;;;;61.22;46.20;;;;;;;8.66;70.98;97483.22;10282324;28;20072;-55
2022/12/24 11:49:10;;;;;;;;;;;;;;;8.92;71.56;97486.69;10266340;28;20503;-56
2022/12/24 11:54:18;;;;;;;68.22;51.80;;;;;;;9.03;71.73;97493.63;10273674;28;19971;-56
2022/12/24 11:59:51;;;;;;;63.83;49.30;;;;;;;9.07;72.21;97485.00;10276994;28;20750;-56
2022/12/24 12:04:56;;;;;;;55.78;41.92;;;;;;;9.19;72.14;97479.81;10231223;28;20120;-56
2022/12/24 12:10:01;;;;;;;46.25;35.75;;;;;;;9.26;72.72;97471.19;10281040;28;20088;-56
2022/12/24 12:15:05;;;;;;;52.30;39.55;;;;;;;9.38;71.95;97469.50;10286188;28;20073;-57
2022/12/24 12:20:47;;;;;;;61.75;43.97;;;;;;;9.56;71.24;97474.66;10286434;28;20475;-56
2022/12/24 12:25:51;;;;;;;61.95;48.30;;;;;;;9.61;70.64;97478.09;10267614;28;20076;-56
2022/12/24 12:31:28;;;;;;;73.65;54.25;;;;;;;9.57;69.98;97489.31;10285813;28;20117;-56
2022/12/24 12:36:33;;;;;;;73.53;56.88;;;;;;;9.55;70.83;97494.50;10272562;28;20121;-56
2022/12/24 12:41:53;;;;;;;94.05;72.78;;;;;;;9.52;71.19;97497.09;10285792;28;20562;-56
2022/12/24 12:46:52;;;;;;;124.18;93.57;;;;;;;9.48;70.99;97497.09;10286515;28;20061;-56
2022/12/24 12:52:01;;;;;;;183.73;144.30;;;;;;;9.30;72.01;97498.84;10287253;28;20033;-56
2022/12/24 12:57:06;;;;;;;195.98;145.50;;;;;;;9.11;72.08;97497.06;10285164;28;20579;-55
2022/12/24 13:02:50;;;;;;;191.23;144.93;;;;;;;9.11;72.09;97502.25;10278361;28;20378;-57
2022/12/24 13:07:57;;;;;;;172.77;130.93;;;;;;;8.99;72.83;97502.25;10287300;28;20065;-57
2022/12/24 13:13:19;;;;;;;149.45;111.28;;;;;;;8.92;73.08;97509.97;10284484;28;20077;-58
2022/12/24 13:18:43;;;;;;;140.18;103.18;;;;;;;8.94;73.12;97513.44;10277543;28;20128;-57
2022/12/24 13:23:43;;;;;;;140.18;103.65;;;;;;;8.89;73.42;97517.75;10278509;28;20460;-57
2022/12/24 13:28:42;;;;;;;152.57;114.45;;;;;;;8.60;74.48;97527.16;10281289;28;20057;-57
2022/12/24 13:33:41;;;;;;;138.52;99.10;;;;;;;8.24;76.30;97541.66;10248458;28;20065;-57
2022/12/24 13:38:55;;;;;;;138.05;100.47;;;;;;;8.09;76.84;97538.16;10273721;28;20046;-57
2022/12/24 13:44:03;;;;;;;135.55;103.03;;;;;;;8.17;78.18;97548.53;10285907;28;20531;-57
2022/12/24 13:49:20;;;;;;;144.80;107.53;;;;;;;8.19;78.47;97553.72;10284112;28;20064;-57
2022/12/24 13:54:27;;;;;;;127.13;96.30;;;;;;;8.23;79.95;97560.63;10285903;28;20088;-57
2022/12/24 13:59:34;;;;;;;130.05;98.65;;;;;;;8.29;81.85;97560.66;10272668;28;20092;-57
2022/12/24 14:04:35;;;;;;;129.00;102.25;;;;;;;8.24;82.30;97565.78;10285373;28;20316;-57
2022/12/24 14:09:35;;;;;;;130.13;98.63;;;;;;;8.16;82.99;97569.22;10284576;28;20100;-57
2022/12/24 14:14:35;;;;;;;;;;;;;;;8.09;83.56;97579.50;10285988;28;20069;-57
2022/12/24 14:19:41;;;;;;;161.23;118.78;;;;;;;8.04;84.43;97575.19;10285868;28;19956;-57
2022/12/24 14:24:42;;;;;;;174.40;130.60;;;;;;;7.99;85.08;97572.56;10275110;28;20053;-56
2022/12/24 14:30:08;;;;;;;181.65;136.80;;;;;;;7.95;85.80;97564.78;10266943;28;20061;-57
2022/12/24 14:35:10;;;;;;;252.48;181.75;;;;;;;7.78;86.19;97580.16;10284533;28;20069;-57
2022/12/24 14:40:18;;;;;;;248.40;180.30;;;;;;;7.64;87.07;97586.09;10278701;28;20061;-57
2022/12/24 14:45:33;;;;;;;262.92;196.80;;;;;;;7.54;87.60;97593.75;10281994;28;20108;-57
2022/12/24 14:51:16;;;;;;;263.35;200.77;;;;;;;7.47;88.26;97603.16;10271233;28;20088;-57
2022/12/24 14:56:18;;;;;;;257.40;199.68;;;;;;;7.47;88.81;97608.31;10273926;28;20527;-56
2022/12/24 15:01:29;;;;;;;338.95;258.95;;;;;;;7.46;89.13;97614.34;10267956;28;20777;-57
2022/12/24 15:06:35;;;;;;;289.50;224.73;;;;;;;7.39;90.16;97615.09;10279912;28;20538;-56
2022/12/24 15:11:35;;;;;;;314.20;236.40;;;;;;;7.36;90.07;97626.28;10262809;28;20100;-56
2022/12/24 15:16:35;;;;;;;318.85;249.73;;;;;;;7.30;90.50;97630.50;10276280;28;20122;-56
2022/12/24 15:21:40;;;;;;;329.00;253.48;;;;;;;7.25;90.98;97636.47;10281317;28;20068;-57
2022/12/24 15:26:43;;;;;;;379.98;278.38;;;;;;;7.25;91.55;97641.63;10279038;28;20080;-57
2022/12/24 15:31:42;;;;;;;339.33;263.55;;;;;;;7.27;91.61;97656.28;10249791;28;20089;-57
2022/12/24 15:36:41;;;;;;;400.63;300.77;;;;;;;7.25;92.31;97677.78;10280026;28;20549;-57
2022/12/24 15:47:02;;;;;;;394.00;297.00;;;;;;;7.17;93.22;97681.09;10285622;28;20124;-57
2022/12/24 15:52:07;;;;;;;385.05;291.35;;;;;;;7.14;93.62;97676.78;10285834;28;20065;-56
2022/12/24 15:57:32;;;;;;;396.48;301.83;;;;;;;7.07;93.56;97681.88;10282594;28;20073;-57
2022/12/24 16:02:31;;;;;;;429.20;324.65;;;;;;;7.00;94.44;97686.94;10282131;28;20074;-57
2022/12/24 16:08:05;;;;;;;433.85;328.58;;;;;;;6.95;95.26;97667.09;10282320;28;20026;-56
2022/12/24 16:12:49;;;;;;;413.30;314.67;;;;;;;6.96;94.32;97664.56;10284717;28;20144;-56
2022/12/24 16:17:48;;;;;;;424.25;321.10;;;;;;;6.97;95.46;97655.09;10286008;28;20101;-56
2022/12/24 16:22:48;;;;;;;533.45;409.77;;;;;;;6.83;95.66;97663.53;10292638;28;20076;-57
2022/12/24 16:27:49;;;;;;;565.83;441.98;;;;;;;6.63;97.12;97693.34;10287050;28;20088;-56
2022/12/24 16:32:49;;;;;;;487.73;372.65;;;;;;;6.51;97.96;97708.66;10286610;28;20076;-56
2022/12/24 16:37:48;;;;;;;346.10;259.23;;;;;;;6.43;98.25;97705.97;10285426;28;20088;-56
2022/12/24 16:48:06;;;;;;;429.15;318.25;;;;;;;6.61;97.41;97715.69;10285217;28;20141;-57
2022/12/24 16:53:05;;;;;;;405.83;302.67;;;;;;;6.61;97.18;97705.38;10276572;28;20108;-57
2022/12/24 16:58:04;;;;;;;405.80;300.45;;;;;;;6.57;97.42;97724.22;10282519;28;20049;-57
2022/12/24 17:03:03;;;;;;;415.15;301.35;;;;;;;6.58;97.78;97733.66;10286716;28;20073;-56
2022/12/24 17:08:02;;;;;;;474.33;362.30;;;;;;;6.42;99.77;97737.72;10285422;28;20529;-57
2022/12/24 17:13:01;;;;;;;396.40;291.88;;;;;;;6.51;99.89;97740.44;10283121;28;20504;-57
2022/12/24 17:18:00;;;;;;;351.98;256.88;;;;;;;6.54;99.00;97713.88;10284490;28;20144;-57
2022/12/24 17:22:59;;;;;;;315.45;231.98;;;;;;;6.45;99.36;97731.78;10283728;28;20044;-57
2022/12/24 17:27:58;;;;;;;291.08;212.90;;;;;;;6.46;98.91;97720.59;10277465;28;20117;-56
2022/12/24 17:32:57;;;;;;;317.42;234.43;;;;;;;6.50;99.35;97722.41;10286514;28;20036;-57
2022/12/24 17:37:56;;;;;;;326.58;249.90;;;;;;;6.37;99.55;97721.31;10282325;28;20557;-56
2022/12/24 17:42:55;;;;;;;396.85;292.17;;;;;;;6.34;99.14;97722.16;10286719;28;20499;-56
2022/12/24 17:47:54;;;;;;;449.77;318.70;;;;;;;6.17;100.00;97728.78;10284418;28;20037;-57
2022/12/24 17:52:52;;;;;;;434.85;315.98;;;;;;;6.18;100.00;97745.94;10284324;28;20032;-56
2022/12/24 17:57:51;;;;;;;449.90;319.75;;;;;;;6.19;99.52;97750.28;10270799;28;20026;-57
2022/12/24 18:02:50;;;;;;;436.08;321.98;;;;;;;6.24;99.37;97761.53;10249725;28;20120;-56
2022/12/24 18:07:49;;;;;;;439.38;316.52;;;;;;;6.30;98.90;97766.75;10272311;28;20034;-57
2022/12/24 18:12:48;;;;;;;429.45;309.75;;;;;;;6.32;99.64;97779.69;10285798;28;20077;-57
2022/12/24 18:17:54;;;;;;;432.45;304.10;;;;;;;6.32;99.06;97784.81;10284250;28;20132;-56
2022/12/24 18:22:54;;;;;;;442.05;307.33;;;;;;;6.27;99.52;97797.63;10287269;28;20066;-56
2022/12/24 18:27:53;;;;;;;409.73;292.63;;;;;;;6.25;99.82;97799.31;10286038;28;20061;-57
2022/12/24 18:32:52;;;;;;;459.45;334.85;;;;;;;6.26;98.95;97801.06;10286694;28;20084;-57
2022/12/24 18:37:51;;;;;;;451.85;333.70;;;;;;;6.31;99.61;97808.88;10285223;28;20041;-57
2022/12/24 18:42:50;;;;;;;473.33;347.83;;;;;;;6.34;99.67;97799.47;10322855;28;20137;-57
2022/12/24 18:47:49;;;;;;;452.15;335.45;;;;;;;6.36;99.23;97808.09;10284699;28;20030;-57
2022/12/24 18:52:49;;;;;;;479.38;344.38;;;;;;;6.38;99.13;97803.84;10286089;28;20120;-57
2022/12/24 18:57:48;;;;;;;370.05;276.90;;;;;;;6.33;100.00;97818.38;10284890;28;20523;-57
2022/12/24 19:02:48;;;;;;;357.38;265.80;;;;;;;6.31;100.00;97824.34;10283656;28;20900;-57
2022/12/24 19:07:47;;;;;;;278.25;205.43;;;;;;;6.19;100.00;97850.78;10282702;28;20483;-57
2022/12/24 19:12:46;;;;;;;352.88;257.02;;;;;;;6.05;100.00;97844.50;10285288;28;20446;-56
2022/12/24 19:17:45;;;;;;;340.13;243.60;;;;;;;5.98;100.00;97852.09;10284475;28;20045;-56
2022/12/24 19:22:44;;;;;;;356.10;263.30;;;;;;;6.02;100.00;97842.72;10282986;28;20072;-56
2022/12/24 19:27:43;;;;;;;350.13;252.55;;;;;;;6.08;100.00;97829.09;10276912;28;20026;-56
2022/12/24 19:32:42;;;;;;;418.83;304.58;;;;;;;6.00;100.00;97820.34;10276923;28;20069;-56
2022/12/24 19:37:41;;;;;;;456.20;326.08;;;;;;;5.97;100.00;97819.44;10266512;28;20033;-57
2022/12/24 19:42:40;;;;;;;460.75;333.95;;;;;;;5.96;100.00;97811.72;10297195;28;20037;-57
2022/12/24 19:47:39;;;;;;;488.10;359.58;;;;;;;5.82;100.00;97808.88;10271467;28;20488;-57
2022/12/24 19:52:38;;;;;;;497.67;361.23;;;;;;;5.51;100.00;97828.03;10277582;28;20141;-57
2022/12/24 19:57:38;;;;;;;435.83;308.10;;;;;;;5.38;100.00;97829.47;10271181;28;20044;-56
2022/12/24 20:02:37;;;;;;;415.83;293.92;;;;;;;5.37;100.00;97832.88;10275755;28;20180;-56
2022/12/24 20:07:36;;;;;;;410.85;281.23;;;;;;;5.41;100.00;97826.94;10278652;28;20069;-56
2022/12/24 20:12:35;;;;;;;379.52;256.55;;;;;;;5.43;100.00;97834.69;10277222;28;20088;-57
2022/12/24 20:17:34;;;;;;;451.77;300.23;;;;;;;5.28;100.00;97850.69;10282339;28;20032;-56
2022/12/24 20:22:33;;;;;;;656.00;435.98;;;;;;;5.06;100.00;97829.66;10284296;28;20038;-57
2022/12/24 20:27:32;;;;;;;432.90;289.95;;;;;;;5.21;100.00;97870.28;10275484;28;20033;-57
2022/12/24 20:32:31;;;;;;;445.73;303.00;;;;;;;5.09;100.00;97864.88;10283057;28;20021;-57
2022/12/24 20:37:30;;;;;;;481.50;327.65;;;;;;;4.95;100.00;97867.13;10288567;28;20062;-57
2022/12/24 20:42:29;;;;;;;451.45;305.95;;;;;;;4.93;100.00;97868.75;10290171;28;20049;-57
2022/12/24 20:47:28;;;;;;;476.27;326.83;;;;;;;4.83;100.00;97877.97;10284680;28;20030;-58
2022/12/24 20:52:27;;;;;;;455.92;309.98;;;;;;;4.69;100.00;97872.50;10289400;28;20100;-56
2022/12/24 20:57:26;;;;;;;466.80;309.05;;;;;;;4.67;100.00;97881.88;10285748;28;20407;-56
2022/12/24 21:02:25;;;;;;;490.20;329.92;;;;;;;4.53;100.00;97888.38;10285984;28;20034;-57
2022/12/24 21:07:24;;;;;;;504.85;325.67;;;;;;;4.37;100.00;97892.25;10287844;28;20026;-57
2022/12/24 21:17:40;;;;;;;471.15;297.83;;;;;;;4.17;100.00;97904.56;10289668;28;20088;-57
2022/12/24 21:22:39;;;;;;;469.63;307.70;;;;;;;4.12;100.00;97905.28;10279745;28;20021;-56
2022/12/24 21:27:38;;;;;;;499.77;315.10;;;;;;;4.01;100.00;97892.13;10290066;28;20068;-56
2022/12/24 21:32:37;;;;;;;498.40;329.42;;;;;;;3.89;100.00;97907.22;10288204;28;20108;-56
2022/12/24 21:37:36;;;;;;;553.05;358.10;;;;;;;3.73;100.00;97896.53;10290117;28;20026;-57
2022/12/24 21:42:36;;;;;;;553.42;368.27;;;;;;;3.66;100.00;97910.03;10287525;28;20061;-57
2022/12/24 21:47:36;;;;;;;530.67;342.45;;;;;;;3.60;100.00;97899.56;10289696;28;20487;-57
2022/12/24 21:52:35;;;;;;;489.63;313.23;;;;;;;3.57;100.00;97902.91;10284178;28;20073;-57
2022/12/24 21:57:53;;;;;;;483.52;296.75;;;;;;;3.54;100.00;97895.16;10284263;28;20070;-56
2022/12/24 22:02:55;;;;;;;394.90;239.95;;;;;;;3.54;100.00;97894.25;10281749;28;20149;-56
2022/12/24 22:13:11;;;;;;;355.17;229.27;;;;;;;3.44;100.00;97913.63;10285433;28;20077;-57
2022/12/24 22:18:12;;;;;;;503.55;323.27;;;;;;;3.37;100.00;97914.28;10289353;28;20066;-56
2022/12/24 22:23:11;;;;;;;814.03;355.77;;;;;;;3.13;100.00;97914.41;10288657;28;20557;-57
2022/12/24 22:28:11;;;;;;;509.85;303.35;;;;;;;3.06;100.00;97909.94;10288173;28;20495;-56
2022/12/24 22:33:10;;;;;;;642.78;347.67;;;;;;;3.05;100.00;97905.59;10277266;28;20061;-57
2022/12/24 22:38:09;;;;;;;616.22;324.52;;;;;;;2.86;100.00;97906.72;10267419;28;20046;-57
2022/12/24 22:43:08;;;;;;;420.83;251.52;;;;;;;2.78;100.00;97909.06;10282815;28;20150;-56
2022/12/24 22:48:07;;;;;;;444.55;270.80;;;;;;;2.80;100.00;97912.53;10282136;28;20062;-56
2022/12/24 22:53:06;;;;;;;389.52;238.20;;;;;;;2.84;100.00;97921.19;10275180;28;20030;-56
2022/12/24 22:58:05;;;;;;;392.77;234.88;;;;;;;2.85;100.00;97926.38;10282100;28;20105;-56
2022/12/24 23:03:05;;;;;;;455.45;275.13;;;;;;;2.84;100.00;97946.81;10285783;28;20475;-56